sensor_id;sensor_type;location;lat;lon;timestamp;temperature;humidity
13405;DHT22;6773;51.192;7.024;2022-08-21T00:01:57;23.10;90.70
13405;DHT22;6773;51.192;7.024;2022-08-21T00:06:50;23.00;90.70
13405;DHT22;6773;51.192;7.024;2022-08-21T00:09:17;23.00;90.70
13405;DHT22;6773;51.192;7.024;2022-08-21T00:11:43;23.00;90.80
13405;DHT22;6773;51.192;7.024;2022-08-21T00:14:09;23.00;90.80
13405;DHT22;6773;51.192;7.024;2022-08-21T00:16:36;22.90;90.80
13405;DHT22;6773;51.192;7.024;2022-08-21T00:19:02;22.90;90.90
13405;DHT22;6773;51.192;7.024;2022-08-21T00:21:28;22.90;90.90
13405;DHT22;6773;51.192;7.024;2022-08-21T00:23:54;22.80;90.90
13405;DHT22;6773;51.192;7.024;2022-08-21T00:26:20;22.80;90.90
13405;DHT22;6773;51.192;7.024;2022-08-21T00:28:45;22.70;90.90
13405;DHT22;6773;51.192;7.024;2022-08-21T00:31:14;22.80;90.90
13405;DHT22;6773;51.192;7.024;2022-08-21T00:36:07;22.80;90.90
13405;DHT22;6773;51.192;7.024;2022-08-21T00:41:01;22.70;90.90
13405;DHT22;6773;51.192;7.024;2022-08-21T00:43:31;22.70;90.90
13405;DHT22;6773;51.192;7.024;2022-08-21T00:45:57;22.60;90.90
13405;DHT22;6773;51.192;7.024;2022-08-21T00:48:24;22.60;90.90
13405;DHT22;6773;51.192;7.024;2022-08-21T00:50:57;22.60;90.90
13405;DHT22;6773;51.192;7.024;2022-08-21T00:53:24;22.60;90.90
13405;DHT22;6773;51.192;7.024;2022-08-21T00:55:51;22.60;90.90
13405;DHT22;6773;51.192;7.024;2022-08-21T01:00:45;22.50;90.90
13405;DHT22;6773;51.192;7.024;2022-08-21T01:03:15;22.50;90.90
13405;DHT22;6773;51.192;7.024;2022-08-21T01:05:42;22.50;90.90
13405;DHT22;6773;51.192;7.024;2022-08-21T01:08:08;22.40;90.90
13405;DHT22;6773;51.192;7.024;2022-08-21T01:10:35;22.40;91.00
13405;DHT22;6773;51.192;7.024;2022-08-21T01:13:05;22.40;91.00
13405;DHT22;6773;51.192;7.024;2022-08-21T01:15:34;22.40;91.00
13405;DHT22;6773;51.192;7.024;2022-08-21T01:18:02;22.40;91.00
13405;DHT22;6773;51.192;7.024;2022-08-21T01:20:28;22.40;91.10
13405;DHT22;6773;51.192;7.024;2022-08-21T01:22:53;22.40;91.10
13405;DHT22;6773;51.192;7.024;2022-08-21T01:25:19;22.40;91.20
13405;DHT22;6773;51.192;7.024;2022-08-21T01:27:45;22.40;91.20
13405;DHT22;6773;51.192;7.024;2022-08-21T01:30:14;22.40;91.20
13405;DHT22;6773;51.192;7.024;2022-08-21T01:32:42;22.80;91.40
13405;DHT22;6773;51.192;7.024;2022-08-21T01:35:08;22.40;91.30
13405;DHT22;6773;51.192;7.024;2022-08-21T01:37:34;22.30;91.30
13405;DHT22;6773;51.192;7.024;2022-08-21T01:40:00;22.30;91.40
13405;DHT22;6773;51.192;7.024;2022-08-21T01:44:51;22.30;91.50
13405;DHT22;6773;51.192;7.024;2022-08-21T01:47:18;22.30;91.50
13405;DHT22;6773;51.192;7.024;2022-08-21T01:49:44;22.30;91.50
13405;DHT22;6773;51.192;7.024;2022-08-21T01:52:10;22.20;91.50
13405;DHT22;6773;51.192;7.024;2022-08-21T01:54:37;22.20;91.60
13405;DHT22;6773;51.192;7.024;2022-08-21T01:57:04;21.80;90.90
13405;DHT22;6773;51.192;7.024;2022-08-21T01:59:30;20.60;92.30
13405;DHT22;6773;51.192;7.024;2022-08-21T02:04:23;18.90;98.50
13405;DHT22;6773;51.192;7.024;2022-08-21T02:09:16;18.10;99.90
13405;DHT22;6773;51.192;7.024;2022-08-21T02:11:42;17.70;99.90
13405;DHT22;6773;51.192;7.024;2022-08-21T02:14:10;17.40;99.90
13405;DHT22;6773;51.192;7.024;2022-08-21T02:16:37;17.10;99.90
13405;DHT22;6773;51.192;7.024;2022-08-21T02:19:03;16.90;99.90
13405;DHT22;6773;51.192;7.024;2022-08-21T02:21:29;16.60;99.90
13405;DHT22;6773;51.192;7.024;2022-08-21T02:23:55;16.40;99.90
13405;DHT22;6773;51.192;7.024;2022-08-21T02:26:20;16.10;99.90
13405;DHT22;6773;51.192;7.024;2022-08-21T02:28:46;15.80;99.90
13405;DHT22;6773;51.192;7.024;2022-08-21T02:31:12;15.70;99.90
13405;DHT22;6773;51.192;7.024;2022-08-21T02:33:38;15.60;99.90
13405;DHT22;6773;51.192;7.024;2022-08-21T02:36:05;15.60;99.90
13405;DHT22;6773;51.192;7.024;2022-08-21T02:38:33;15.60;99.90
13405;DHT22;6773;51.192;7.024;2022-08-21T02:41:03;15.60;99.90
13405;DHT22;6773;51.192;7.024;2022-08-21T02:43:29;15.50;99.90
13405;DHT22;6773;51.192;7.024;2022-08-21T02:45:56;15.40;99.90
13405;DHT22;6773;51.192;7.024;2022-08-21T02:48:25;15.30;99.90
13405;DHT22;6773;51.192;7.024;2022-08-21T02:50:55;15.30;99.90
13405;DHT22;6773;51.192;7.024;2022-08-21T02:53:21;15.20;99.90
13405;DHT22;6773;51.192;7.024;2022-08-21T02:55:49;15.20;99.90
13405;DHT22;6773;51.192;7.024;2022-08-21T02:58:22;15.20;99.90
13405;DHT22;6773;51.192;7.024;2022-08-21T03:05:43;15.20;99.90
13405;DHT22;6773;51.192;7.024;2022-08-21T03:08:10;15.20;99.90
13405;DHT22;6773;51.192;7.024;2022-08-21T03:10:42;15.20;99.90
13405;DHT22;6773;51.192;7.024;2022-08-21T03:13:08;15.30;99.90
13405;DHT22;6773;51.192;7.024;2022-08-21T03:15:35;15.30;99.90
13405;DHT22;6773;51.192;7.024;2022-08-21T03:18:01;15.20;99.90
13405;DHT22;6773;51.192;7.024;2022-08-21T03:20:28;15.30;99.90
13405;DHT22;6773;51.192;7.024;2022-08-21T03:22:54;15.20;99.90
13405;DHT22;6773;51.192;7.024;2022-08-21T03:25:24;15.20;99.90
13405;DHT22;6773;51.192;7.024;2022-08-21T03:27:50;15.10;99.90
13405;DHT22;6773;51.192;7.024;2022-08-21T03:30:17;15.10;99.90
13405;DHT22;6773;51.192;7.024;2022-08-21T03:32:43;15.10;99.90
13405;DHT22;6773;51.192;7.024;2022-08-21T03:35:09;15.10;99.90
13405;DHT22;6773;51.192;7.024;2022-08-21T03:40:02;15.10;99.90
13405;DHT22;6773;51.192;7.024;2022-08-21T03:49:47;15.10;99.90
13405;DHT22;6773;51.192;7.024;2022-08-21T03:52:13;15.10;99.90
13405;DHT22;6773;51.192;7.024;2022-08-21T03:54:39;15.10;99.90
13405;DHT22;6773;51.192;7.024;2022-08-21T04:02:00;15.00;99.90
13405;DHT22;6773;51.192;7.024;2022-08-21T04:04:28;15.00;99.90
13405;DHT22;6773;51.192;7.024;2022-08-21T04:06:54;14.90;99.90
13405;DHT22;6773;51.192;7.024;2022-08-21T04:14:13;14.90;99.90
13405;DHT22;6773;51.192;7.024;2022-08-21T04:16:40;14.90;99.90
13405;DHT22;6773;51.192;7.024;2022-08-21T04:19:07;14.90;99.90
13405;DHT22;6773;51.192;7.024;2022-08-21T04:21:33;14.90;99.90
13405;DHT22;6773;51.192;7.024;2022-08-21T04:23:59;14.90;99.90
13405;DHT22;6773;51.192;7.024;2022-08-21T04:26:25;14.90;99.90
13405;DHT22;6773;51.192;7.024;2022-08-21T04:28:51;14.90;99.90
13405;DHT22;6773;51.192;7.024;2022-08-21T04:31:17;14.90;99.90
13405;DHT22;6773;51.192;7.024;2022-08-21T04:33:43;14.90;99.90
13405;DHT22;6773;51.192;7.024;2022-08-21T04:36:10;14.80;99.90
13405;DHT22;6773;51.192;7.024;2022-08-21T04:41:02;14.80;99.90
13405;DHT22;6773;51.192;7.024;2022-08-21T04:48:23;14.80;99.90
13405;DHT22;6773;51.192;7.024;2022-08-21T04:51:02;14.80;99.90
13405;DHT22;6773;51.192;7.024;2022-08-21T04:53:31;14.80;99.90
13405;DHT22;6773;51.192;7.024;2022-08-21T04:56:04;14.90;99.90
13405;DHT22;6773;51.192;7.024;2022-08-21T05:00:59;14.90;99.90
13405;DHT22;6773;51.192;7.024;2022-08-21T05:03:25;14.90;99.90
13405;DHT22;6773;51.192;7.024;2022-08-21T05:05:51;14.90;99.90
13405;DHT22;6773;51.192;7.024;2022-08-21T05:08:19;14.90;99.90
13405;DHT22;6773;51.192;7.024;2022-08-21T05:10:47;14.30;99.90
13405;DHT22;6773;51.192;7.024;2022-08-21T05:13:13;14.90;99.90
13405;DHT22;6773;51.192;7.024;2022-08-21T05:15:39;15.00;99.90
13405;DHT22;6773;51.192;7.024;2022-08-21T05:18:05;15.00;99.90
13405;DHT22;6773;51.192;7.024;2022-08-21T05:20:32;15.00;99.90
13405;DHT22;6773;51.192;7.024;2022-08-21T05:23:00;15.00;99.90
13405;DHT22;6773;51.192;7.024;2022-08-21T05:25:27;15.00;99.90
13405;DHT22;6773;51.192;7.024;2022-08-21T05:27:52;15.00;99.90
13405;DHT22;6773;51.192;7.024;2022-08-21T05:30:19;15.00;99.90
13405;DHT22;6773;51.192;7.024;2022-08-21T05:32:46;14.90;99.90
13405;DHT22;6773;51.192;7.024;2022-08-21T05:37:39;15.00;99.90
13405;DHT22;6773;51.192;7.024;2022-08-21T05:40:06;15.10;99.90
13405;DHT22;6773;51.192;7.024;2022-08-21T05:44:59;15.10;99.90
13405;DHT22;6773;51.192;7.024;2022-08-21T05:47:24;15.20;99.90
13405;DHT22;6773;51.192;7.024;2022-08-21T05:52:20;15.30;99.90
13405;DHT22;6773;51.192;7.024;2022-08-21T05:54:46;15.40;99.90
13405;DHT22;6773;51.192;7.024;2022-08-21T05:57:12;15.50;99.90
13405;DHT22;6773;51.192;7.024;2022-08-21T05:59:38;15.50;99.90
13405;DHT22;6773;51.192;7.024;2022-08-21T06:02:03;15.70;99.90
13405;DHT22;6773;51.192;7.024;2022-08-21T06:04:29;15.70;99.90
13405;DHT22;6773;51.192;7.024;2022-08-21T06:06:55;15.90;99.90
13405;DHT22;6773;51.192;7.024;2022-08-21T06:09:20;16.00;99.90
13405;DHT22;6773;51.192;7.024;2022-08-21T06:11:46;16.00;99.90
13405;DHT22;6773;51.192;7.024;2022-08-21T06:14:14;16.10;99.90
13405;DHT22;6773;51.192;7.024;2022-08-21T06:16:40;16.20;99.90
13405;DHT22;6773;51.192;7.024;2022-08-21T06:19:05;16.20;99.90
13405;DHT22;6773;51.192;7.024;2022-08-21T06:23:57;16.30;99.90
13405;DHT22;6773;51.192;7.024;2022-08-21T06:26:23;16.40;99.90
13405;DHT22;6773;51.192;7.024;2022-08-21T06:28:50;16.50;99.90
13405;DHT22;6773;51.192;7.024;2022-08-21T06:31:22;16.60;99.90
13405;DHT22;6773;51.192;7.024;2022-08-21T06:36:14;16.80;99.90
13405;DHT22;6773;51.192;7.024;2022-08-21T06:38:40;16.80;99.90
13405;DHT22;6773;51.192;7.024;2022-08-21T06:41:07;16.80;99.90
13405;DHT22;6773;51.192;7.024;2022-08-21T06:43:33;16.90;99.90
13405;DHT22;6773;51.192;7.024;2022-08-21T06:45:59;17.00;99.90
13405;DHT22;6773;51.192;7.024;2022-08-21T06:48:24;17.00;99.90
13405;DHT22;6773;51.192;7.024;2022-08-21T06:50:50;17.10;99.90
13405;DHT22;6773;51.192;7.024;2022-08-21T06:53:18;17.10;99.90
13405;DHT22;6773;51.192;7.024;2022-08-21T06:55:44;17.20;99.90
13405;DHT22;6773;51.192;7.024;2022-08-21T06:58:11;17.10;99.90
13405;DHT22;6773;51.192;7.024;2022-08-21T07:00:55;17.30;99.90
13405;DHT22;6773;51.192;7.024;2022-08-21T07:03:24;17.40;99.90
13405;DHT22;6773;51.192;7.024;2022-08-21T07:05:51;17.40;99.90
13405;DHT22;6773;51.192;7.024;2022-08-21T07:10:43;17.60;99.90
13405;DHT22;6773;51.192;7.024;2022-08-21T07:13:09;17.70;99.90
13405;DHT22;6773;51.192;7.024;2022-08-21T07:15:35;17.80;99.90
13405;DHT22;6773;51.192;7.024;2022-08-21T07:20:28;18.00;99.90
13405;DHT22;6773;51.192;7.024;2022-08-21T07:22:55;18.10;99.90
13405;DHT22;6773;51.192;7.024;2022-08-21T07:25:21;18.20;99.90
13405;DHT22;6773;51.192;7.024;2022-08-21T07:27:47;18.40;99.90
13405;DHT22;6773;51.192;7.024;2022-08-21T07:32:38;18.40;99.90
13405;DHT22;6773;51.192;7.024;2022-08-21T07:35:05;18.40;99.90
13405;DHT22;6773;51.192;7.024;2022-08-21T07:37:30;18.60;99.90
13405;DHT22;6773;51.192;7.024;2022-08-21T07:39:56;18.70;99.90
13405;DHT22;6773;51.192;7.024;2022-08-21T07:44:47;18.50;99.90
13405;DHT22;6773;51.192;7.024;2022-08-21T07:49:39;18.70;99.90
13405;DHT22;6773;51.192;7.024;2022-08-21T07:54:31;18.80;99.90
13405;DHT22;6773;51.192;7.024;2022-08-21T07:59:22;18.90;99.90
13405;DHT22;6773;51.192;7.024;2022-08-21T08:01:48;18.90;99.90
13405;DHT22;6773;51.192;7.024;2022-08-21T08:04:13;18.90;99.90
13405;DHT22;6773;51.192;7.024;2022-08-21T08:06:41;19.10;99.90
13405;DHT22;6773;51.192;7.024;2022-08-21T08:09:07;19.30;99.90
13405;DHT22;6773;51.192;7.024;2022-08-21T08:11:32;19.40;99.90
13405;DHT22;6773;51.192;7.024;2022-08-21T08:13:58;19.50;99.80
13405;DHT22;6773;51.192;7.024;2022-08-21T08:18:50;19.50;99.10
13405;DHT22;6773;51.192;7.024;2022-08-21T08:21:17;19.40;99.40
13405;DHT22;6773;51.192;7.024;2022-08-21T08:23:45;19.60;99.40
13405;DHT22;6773;51.192;7.024;2022-08-21T08:26:11;19.70;99.40
13405;DHT22;6773;51.192;7.024;2022-08-21T08:28:37;20.00;98.50
13405;DHT22;6773;51.192;7.024;2022-08-21T08:31:02;20.10;98.80
13405;DHT22;6773;51.192;7.024;2022-08-21T08:33:28;20.20;98.10
13405;DHT22;6773;51.192;7.024;2022-08-21T08:38:22;20.30;97.20
13405;DHT22;6773;51.192;7.024;2022-08-21T08:41:12;20.20;97.00
13405;DHT22;6773;51.192;7.024;2022-08-21T08:43:39;20.30;96.80
13405;DHT22;6773;51.192;7.024;2022-08-21T08:46:14;20.40;96.50
13405;DHT22;6773;51.192;7.024;2022-08-21T08:48:57;20.70;96.50
13405;DHT22;6773;51.192;7.024;2022-08-21T08:51:40;20.80;96.20
13405;DHT22;6773;51.192;7.024;2022-08-21T08:54:15;21.00;94.50
13405;DHT22;6773;51.192;7.024;2022-08-21T08:56:43;20.80;94.50
13405;DHT22;6773;51.192;7.024;2022-08-21T08:59:22;21.00;93.90
13405;DHT22;6773;51.192;7.024;2022-08-21T09:01:51;21.00;93.00
13405;DHT22;6773;51.192;7.024;2022-08-21T09:04:24;21.20;93.50
13405;DHT22;6773;51.192;7.024;2022-08-21T09:07:35;21.40;93.20
13405;DHT22;6773;51.192;7.024;2022-08-21T09:10:23;21.60;92.90
13405;DHT22;6773;51.192;7.024;2022-08-21T09:15:41;21.50;92.00
13405;DHT22;6773;51.192;7.024;2022-08-21T09:21:39;21.70;92.10
13405;DHT22;6773;51.192;7.024;2022-08-21T09:24:22;21.50;91.90
13405;DHT22;6773;51.192;7.024;2022-08-21T09:26:52;21.30;92.80
13405;DHT22;6773;51.192;7.024;2022-08-21T09:29:22;21.40;92.10
13405;DHT22;6773;51.192;7.024;2022-08-21T09:31:50;21.40;92.10
13405;DHT22;6773;51.192;7.024;2022-08-21T09:34:25;21.80;91.80
13405;DHT22;6773;51.192;7.024;2022-08-21T09:36:52;21.80;92.00
13405;DHT22;6773;51.192;7.024;2022-08-21T09:39:30;22.10;91.30
13405;DHT22;6773;51.192;7.024;2022-08-21T09:42:01;22.50;90.00
13405;DHT22;6773;51.192;7.024;2022-08-21T09:44:32;22.60;88.40
13405;DHT22;6773;51.192;7.024;2022-08-21T09:46:59;22.50;88.80
13405;DHT22;6773;51.192;7.024;2022-08-21T09:49:34;22.60;88.60
13405;DHT22;6773;51.192;7.024;2022-08-21T09:52:02;22.80;87.80
13405;DHT22;6773;51.192;7.024;2022-08-21T09:54:34;23.10;86.30
13405;DHT22;6773;51.192;7.024;2022-08-21T09:57:14;23.30;88.20
13405;DHT22;6773;51.192;7.024;2022-08-21T10:00:26;23.40;89.10
13405;DHT22;6773;51.192;7.024;2022-08-21T10:02:52;24.10;83.80
13405;DHT22;6773;51.192;7.024;2022-08-21T10:05:22;23.60;82.70
13405;DHT22;6773;51.192;7.024;2022-08-21T10:07:49;23.20;83.60
13405;DHT22;6773;51.192;7.024;2022-08-21T10:10:27;23.30;85.30
13405;DHT22;6773;51.192;7.024;2022-08-21T10:13:19;23.30;85.80
13405;DHT22;6773;51.192;7.024;2022-08-21T10:17:14;23.50;85.00
13405;DHT22;6773;51.192;7.024;2022-08-21T10:24:33;23.90;81.50
13405;DHT22;6773;51.192;7.024;2022-08-21T10:27:15;24.20;81.40
13405;DHT22;6773;51.192;7.024;2022-08-21T10:30:06;24.50;78.50
13405;DHT22;6773;51.192;7.024;2022-08-21T10:35:42;25.20;76.60
13405;DHT22;6773;51.192;7.024;2022-08-21T10:47:49;26.00;75.50
13405;DHT22;6773;51.192;7.024;2022-08-21T10:53:30;26.00;72.80
13405;DHT22;6773;51.192;7.024;2022-08-21T10:56:32;25.60;73.70
13405;DHT22;6773;51.192;7.024;2022-08-21T10:59:23;25.50;73.40
13405;DHT22;6773;51.192;7.024;2022-08-21T11:05:31;24.50;74.20
13405;DHT22;6773;51.192;7.024;2022-08-21T11:08:12;24.40;76.10
13405;DHT22;6773;51.192;7.024;2022-08-21T11:10:42;24.80;75.10
13405;DHT22;6773;51.192;7.024;2022-08-21T11:19:01;25.00;74.40
13405;DHT22;6773;51.192;7.024;2022-08-21T11:21:45;25.20;73.50
13405;DHT22;6773;51.192;7.024;2022-08-21T11:27:06;26.00;72.30
13405;DHT22;6773;51.192;7.024;2022-08-21T11:29:39;26.10;72.80
13405;DHT22;6773;51.192;7.024;2022-08-21T11:35:35;27.00;68.90
13405;DHT22;6773;51.192;7.024;2022-08-21T11:38:41;26.90;68.80
13405;DHT22;6773;51.192;7.024;2022-08-21T11:41:28;26.50;68.20
13405;DHT22;6773;51.192;7.024;2022-08-21T11:57:03;26.60;69.40
13405;DHT22;6773;51.192;7.024;2022-08-21T11:59:44;27.00;70.70
13405;DHT22;6773;51.192;7.024;2022-08-21T12:02:16;27.40;65.70
13405;DHT22;6773;51.192;7.024;2022-08-21T12:04:57;27.50;68.00
13405;DHT22;6773;51.192;7.024;2022-08-21T12:07:40;27.70;65.50
13405;DHT22;6773;51.192;7.024;2022-08-21T12:10:11;27.80;65.20
13405;DHT22;6773;51.192;7.024;2022-08-21T12:12:39;28.00;68.30
13405;DHT22;6773;51.192;7.024;2022-08-21T12:17:55;28.60;63.80
13405;DHT22;6773;51.192;7.024;2022-08-21T12:25:59;27.40;64.10
13405;DHT22;6773;51.192;7.024;2022-08-21T12:28:27;27.50;65.90
13405;DHT22;6773;51.192;7.024;2022-08-21T12:30:54;28.60;61.70
13405;DHT22;6773;51.192;7.024;2022-08-21T12:33:33;29.30;63.20
13405;DHT22;6773;51.192;7.024;2022-08-21T12:36:06;29.40;60.30
13405;DHT22;6773;51.192;7.024;2022-08-21T12:38:48;28.50;60.90
13405;DHT22;6773;51.192;7.024;2022-08-21T12:41:28;28.00;61.10
13405;DHT22;6773;51.192;7.024;2022-08-21T12:44:07;28.00;62.00
13405;DHT22;6773;51.192;7.024;2022-08-21T12:46:54;28.10;63.50
13405;DHT22;6773;51.192;7.024;2022-08-21T12:52:22;29.30;65.30
13405;DHT22;6773;51.192;7.024;2022-08-21T12:54:47;30.00;61.00
13405;DHT22;6773;51.192;7.024;2022-08-21T12:57:25;29.60;59.20
13405;DHT22;6773;51.192;7.024;2022-08-21T12:59:55;29.40;59.50
13405;DHT22;6773;51.192;7.024;2022-08-21T13:02:30;29.10;61.20
13405;DHT22;6773;51.192;7.024;2022-08-21T13:04:57;28.80;58.90
13405;DHT22;6773;51.192;7.024;2022-08-21T13:07:31;28.10;60.80
13405;DHT22;6773;51.192;7.024;2022-08-21T13:10:14;28.60;61.40
13405;DHT22;6773;51.192;7.024;2022-08-21T13:12:42;29.00;61.00
13405;DHT22;6773;51.192;7.024;2022-08-21T13:15:08;29.00;59.20
13405;DHT22;6773;51.192;7.024;2022-08-21T13:17:36;29.00;59.50
13405;DHT22;6773;51.192;7.024;2022-08-21T13:20:08;28.20;59.70
13405;DHT22;6773;51.192;7.024;2022-08-21T13:22:44;27.90;61.00
13405;DHT22;6773;51.192;7.024;2022-08-21T13:25:12;27.40;61.60
13405;DHT22;6773;51.192;7.024;2022-08-21T13:27:38;27.00;61.10
13405;DHT22;6773;51.192;7.024;2022-08-21T13:30:11;27.10;61.90
13405;DHT22;6773;51.192;7.024;2022-08-21T13:32:41;27.40;65.80
13405;DHT22;6773;51.192;7.024;2022-08-21T13:35:20;28.10;64.30
13405;DHT22;6773;51.192;7.024;2022-08-21T13:37:49;28.90;61.80
13405;DHT22;6773;51.192;7.024;2022-08-21T13:40:20;29.10;60.10
13405;DHT22;6773;51.192;7.024;2022-08-21T13:42:49;29.60;58.60
13405;DHT22;6773;51.192;7.024;2022-08-21T13:45:23;29.60;59.80
13405;DHT22;6773;51.192;7.024;2022-08-21T13:47:50;30.20;60.10
13405;DHT22;6773;51.192;7.024;2022-08-21T13:50:18;30.50;60.00
13405;DHT22;6773;51.192;7.024;2022-08-21T13:52:58;29.80;56.30
13405;DHT22;6773;51.192;7.024;2022-08-21T13:55:24;29.70;58.60
13405;DHT22;6773;51.192;7.024;2022-08-21T13:58:01;28.50;57.60
13405;DHT22;6773;51.192;7.024;2022-08-21T14:00:29;28.40;58.40
13405;DHT22;6773;51.192;7.024;2022-08-21T14:03:10;28.40;60.30
13405;DHT22;6773;51.192;7.024;2022-08-21T14:05:45;29.30;60.80
13405;DHT22;6773;51.192;7.024;2022-08-21T14:08:14;29.30;62.00
13405;DHT22;6773;51.192;7.024;2022-08-21T14:10:46;30.00;58.30
13405;DHT22;6773;51.192;7.024;2022-08-21T14:16:00;30.60;58.40
13405;DHT22;6773;51.192;7.024;2022-08-21T14:18:27;30.40;56.50
13405;DHT22;6773;51.192;7.024;2022-08-21T14:21:07;30.60;55.40
13405;DHT22;6773;51.192;7.024;2022-08-21T14:23:33;30.40;56.30
13405;DHT22;6773;51.192;7.024;2022-08-21T14:26:02;30.40;55.30
13405;DHT22;6773;51.192;7.024;2022-08-21T14:28:34;30.50;55.10
13405;DHT22;6773;51.192;7.024;2022-08-21T14:31:18;30.40;55.30
13405;DHT22;6773;51.192;7.024;2022-08-21T14:33:44;30.50;55.90
13405;DHT22;6773;51.192;7.024;2022-08-21T14:36:10;30.70;56.30
13405;DHT22;6773;51.192;7.024;2022-08-21T14:38:38;30.80;55.80
13405;DHT22;6773;51.192;7.024;2022-08-21T14:41:17;31.00;55.50
13405;DHT22;6773;51.192;7.024;2022-08-21T14:43:44;31.10;54.40
13405;DHT22;6773;51.192;7.024;2022-08-21T14:46:16;31.00;52.70
13405;DHT22;6773;51.192;7.024;2022-08-21T14:48:44;30.40;52.90
13405;DHT22;6773;51.192;7.024;2022-08-21T14:51:10;29.50;55.50
13405;DHT22;6773;51.192;7.024;2022-08-21T14:53:35;29.50;54.70
13405;DHT22;6773;51.192;7.024;2022-08-21T14:56:01;29.20;55.70
13405;DHT22;6773;51.192;7.024;2022-08-21T14:58:36;29.40;56.00
13405;DHT22;6773;51.192;7.024;2022-08-21T15:01:02;30.00;54.70
13405;DHT22;6773;51.192;7.024;2022-08-21T15:03:30;29.90;54.50
13405;DHT22;6773;51.192;7.024;2022-08-21T15:05:57;29.80;55.90
13405;DHT22;6773;51.192;7.024;2022-08-21T15:08:23;30.00;53.20
13405;DHT22;6773;51.192;7.024;2022-08-21T15:10:48;29.60;55.20
13405;DHT22;6773;51.192;7.024;2022-08-21T15:13:14;29.60;54.10
13405;DHT22;6773;51.192;7.024;2022-08-21T15:15:42;29.80;54.30
13405;DHT22;6773;51.192;7.024;2022-08-21T15:18:10;29.80;54.90
13405;DHT22;6773;51.192;7.024;2022-08-21T15:20:37;30.00;54.00
13405;DHT22;6773;51.192;7.024;2022-08-21T15:23:04;29.60;55.60
13405;DHT22;6773;51.192;7.024;2022-08-21T15:25:31;29.20;54.10
13405;DHT22;6773;51.192;7.024;2022-08-21T15:27:56;29.00;55.90
13405;DHT22;6773;51.192;7.024;2022-08-21T15:30:23;29.40;54.70
13405;DHT22;6773;51.192;7.024;2022-08-21T15:32:48;29.40;55.10
13405;DHT22;6773;51.192;7.024;2022-08-21T15:35:14;29.80;56.10
13405;DHT22;6773;51.192;7.024;2022-08-21T15:37:40;30.30;56.10
13405;DHT22;6773;51.192;7.024;2022-08-21T15:40:06;30.60;55.50
13405;DHT22;6773;51.192;7.024;2022-08-21T15:42:33;30.80;55.30
13405;DHT22;6773;51.192;7.024;2022-08-21T15:44:59;30.90;55.30
13405;DHT22;6773;51.192;7.024;2022-08-21T15:47:30;31.20;55.30
13405;DHT22;6773;51.192;7.024;2022-08-21T15:49:56;31.20;54.70
13405;DHT22;6773;51.192;7.024;2022-08-21T15:52:22;31.00;55.10
13405;DHT22;6773;51.192;7.024;2022-08-21T15:54:49;30.70;56.20
13405;DHT22;6773;51.192;7.024;2022-08-21T15:57:19;30.30;55.90
13405;DHT22;6773;51.192;7.024;2022-08-21T15:59:49;30.30;56.40
13405;DHT22;6773;51.192;7.024;2022-08-21T16:02:19;30.30;54.90
13405;DHT22;6773;51.192;7.024;2022-08-21T16:04:46;30.30;55.20
13405;DHT22;6773;51.192;7.024;2022-08-21T16:07:12;30.20;57.10
13405;DHT22;6773;51.192;7.024;2022-08-21T16:09:38;30.00;56.50
13405;DHT22;6773;51.192;7.024;2022-08-21T16:12:05;29.30;54.90
13405;DHT22;6773;51.192;7.024;2022-08-21T16:14:31;28.80;55.80
13405;DHT22;6773;51.192;7.024;2022-08-21T16:16:59;28.80;56.40
13405;DHT22;6773;51.192;7.024;2022-08-21T16:19:26;29.00;57.40
13405;DHT22;6773;51.192;7.024;2022-08-21T16:21:53;29.20;56.90
13405;DHT22;6773;51.192;7.024;2022-08-21T16:24:18;29.20;58.00
13405;DHT22;6773;51.192;7.024;2022-08-21T16:26:44;29.10;58.50
13405;DHT22;6773;51.192;7.024;2022-08-21T16:29:10;28.10;57.30
13405;DHT22;6773;51.192;7.024;2022-08-21T16:34:02;27.80;59.80
13405;DHT22;6773;51.192;7.024;2022-08-21T16:36:28;27.50;60.50
13405;DHT22;6773;51.192;7.024;2022-08-21T16:38:55;27.40;60.50
13405;DHT22;6773;51.192;7.024;2022-08-21T16:41:23;27.30;59.60
13405;DHT22;6773;51.192;7.024;2022-08-21T16:43:51;27.00;59.90
13405;DHT22;6773;51.192;7.024;2022-08-21T16:46:17;26.80;60.30
13405;DHT22;6773;51.192;7.024;2022-08-21T16:48:45;26.70;59.70
13405;DHT22;6773;51.192;7.024;2022-08-21T16:51:14;26.50;60.10
13405;DHT22;6773;51.192;7.024;2022-08-21T16:53:40;26.20;61.80
13405;DHT22;6773;51.192;7.024;2022-08-21T16:56:06;26.10;62.20
13405;DHT22;6773;51.192;7.024;2022-08-21T16:58:34;26.00;62.80
13405;DHT22;6773;51.192;7.024;2022-08-21T17:01:04;25.90;62.10
13405;DHT22;6773;51.192;7.024;2022-08-21T17:03:33;25.80;62.80
13405;DHT22;6773;51.192;7.024;2022-08-21T17:06:00;25.80;62.20
13405;DHT22;6773;51.192;7.024;2022-08-21T17:08:26;25.70;63.60
13405;DHT22;6773;51.192;7.024;2022-08-21T17:10:52;26.00;63.40
13405;DHT22;6773;51.192;7.024;2022-08-21T17:13:18;26.10;63.00
13405;DHT22;6773;51.192;7.024;2022-08-21T17:15:44;26.10;62.80
13405;DHT22;6773;51.192;7.024;2022-08-21T17:18:13;25.90;62.30
13405;DHT22;6773;51.192;7.024;2022-08-21T17:20:40;25.80;63.60
13405;DHT22;6773;51.192;7.024;2022-08-21T17:23:05;25.90;62.20
13405;DHT22;6773;51.192;7.024;2022-08-21T17:25:32;26.00;62.60
13405;DHT22;6773;51.192;7.024;2022-08-21T17:27:58;26.00;62.20
13405;DHT22;6773;51.192;7.024;2022-08-21T17:30:24;26.20;63.10
13405;DHT22;6773;51.192;7.024;2022-08-21T17:32:52;26.10;61.80
13405;DHT22;6773;51.192;7.024;2022-08-21T17:35:19;25.90;63.50
13405;DHT22;6773;51.192;7.024;2022-08-21T17:37:45;25.80;63.20
13405;DHT22;6773;51.192;7.024;2022-08-21T17:40:12;25.70;63.50
13405;DHT22;6773;51.192;7.024;2022-08-21T17:42:45;25.70;63.00
13405;DHT22;6773;51.192;7.024;2022-08-21T17:45:14;25.40;63.50
13405;DHT22;6773;51.192;7.024;2022-08-21T17:47:41;25.30;62.70
13405;DHT22;6773;51.192;7.024;2022-08-21T17:50:08;25.00;62.90
13405;DHT22;6773;51.192;7.024;2022-08-21T17:52:35;24.80;63.80
13405;DHT22;6773;51.192;7.024;2022-08-21T17:55:01;24.50;63.80
13405;DHT22;6773;51.192;7.024;2022-08-21T17:57:29;24.30;64.40
13405;DHT22;6773;51.192;7.024;2022-08-21T17:59:57;24.10;64.90
13405;DHT22;6773;51.192;7.024;2022-08-21T18:02:23;23.90;65.40
13405;DHT22;6773;51.192;7.024;2022-08-21T18:04:49;23.70;65.60
13405;DHT22;6773;51.192;7.024;2022-08-21T18:07:16;23.50;65.90
13405;DHT22;6773;51.192;7.024;2022-08-21T18:09:42;23.40;67.50
13405;DHT22;6773;51.192;7.024;2022-08-21T18:12:09;23.20;68.50
13405;DHT22;6773;51.192;7.024;2022-08-21T18:14:35;23.10;68.90
13405;DHT22;6773;51.192;7.024;2022-08-21T18:17:09;22.90;69.50
13405;DHT22;6773;51.192;7.024;2022-08-21T18:19:35;22.80;70.40
13405;DHT22;6773;51.192;7.024;2022-08-21T18:24:33;22.50;70.40
13405;DHT22;6773;51.192;7.024;2022-08-21T18:26:59;22.40;70.50
13405;DHT22;6773;51.192;7.024;2022-08-21T18:29:25;22.30;70.80
13405;DHT22;6773;51.192;7.024;2022-08-21T18:31:50;22.20;70.60
13405;DHT22;6773;51.192;7.024;2022-08-21T18:34:38;22.10;71.20
13405;DHT22;6773;51.192;7.024;2022-08-21T18:37:06;21.90;71.70
13405;DHT22;6773;51.192;7.024;2022-08-21T18:41:59;21.80;72.30